JBU2089 KFLL-MHLM
Flight info
| Callsign | JBU2089 |
|---|---|
| Flight time | N/A |
| Altitude | 35000 |
| Route | MAYNR3 FUNDI UM335 JABIR/N0458F370 UM335 ALVEK UZ637 PABEL UL471 DENOM |
| Aircraft | A320/M-SDE3FGHIRWY/LB1 |
Departure
| Time | 2026-05-03 23:00 |
|---|---|
| Airport | Fort Lauderdale Hollywood International Airport (KFLL) |
Arrival
| Time | N/A |
|---|---|
| Airport | Ramón Villeda Morales International Airport (MHLM) |
| Time | Latitude | Longitude | Altitude | Speed | Heading |
|---|---|---|---|---|---|
| 2026-05-03 22:11 | 26.07061 | -80.14626 | 28 ft | 0 kts | 359° |
| 2026-05-03 22:26 | 26.07046 | -80.14625 | 28 ft | 2 kts | 359° |
| 2026-05-03 22:27 | 26.07030 | -80.14625 | 29 ft | 2 kts | 359° |
| 2026-05-03 22:27 | 26.07014 | -80.14623 | 30 ft | 2 kts | 332° |
| 2026-05-03 22:27 | 26.07001 | -80.14612 | 31 ft | 2 kts | 300° |
| 2026-05-03 22:27 | 26.06994 | -80.14595 | 31 ft | 2 kts | 275° |
| 2026-05-03 22:28 | 26.06994 | -80.14594 | 31 ft | 0 kts | 274° |
| 2026-05-03 22:33 | 26.06994 | -80.14595 | 31 ft | 1 kts | 274° |
| 2026-05-03 22:34 | 26.06995 | -80.14615 | 31 ft | 4 kts | 273° |
| 2026-05-03 22:34 | 26.06995 | -80.14655 | 30 ft | 3 kts | 268° |
| 2026-05-03 22:34 | 26.06995 | -80.14656 | 30 ft | 0 kts | 268° |
| 2026-05-03 22:36 | 26.06995 | -80.14657 | 30 ft | 1 kts | 268° |
| 2026-05-03 22:36 | 26.06994 | -80.14681 | 30 ft | 5 kts | 266° |
| 2026-05-03 22:36 | 26.06976 | -80.14730 | 31 ft | 8 kts | 231° |
| 2026-05-03 22:36 | 26.06937 | -80.14777 | 32 ft | 8 kts | 227° |
| 2026-05-03 22:37 | 26.06912 | -80.14830 | 32 ft | 8 kts | 258° |
| 2026-05-03 22:37 | 26.06912 | -80.14902 | 33 ft | 11 kts | 271° |
| 2026-05-03 22:37 | 26.06912 | -80.14992 | 33 ft | 13 kts | 270° |
| 2026-05-03 22:37 | 26.06908 | -80.15099 | 33 ft | 15 kts | 253° |
| 2026-05-03 22:38 | 26.06820 | -80.15131 | 34 ft | 14 kts | 181° |
| 2026-05-03 22:38 | 26.06722 | -80.15136 | 36 ft | 14 kts | 197° |
| 2026-05-03 22:38 | 26.06696 | -80.15236 | 36 ft | 15 kts | 270° |
| 2026-05-03 22:38 | 26.06697 | -80.15337 | 35 ft | 6 kts | 270° |
| 2026-05-03 22:39 | 26.06697 | -80.15346 | 35 ft | 0 kts | 270° |
| 2026-05-03 22:42 | 26.06697 | -80.15351 | 35 ft | 2 kts | 270° |
| 2026-05-03 22:42 | 26.06697 | -80.15383 | 34 ft | 6 kts | 271° |
| 2026-05-03 22:43 | 26.06697 | -80.15409 | 33 ft | 0 kts | 270° |
| 2026-05-03 22:43 | 26.06697 | -80.15412 | 33 ft | 2 kts | 270° |
| 2026-05-03 22:43 | 26.06697 | -80.15434 | 32 ft | 1 kts | 270° |
| 2026-05-03 22:44 | 26.06697 | -80.15436 | 32 ft | 0 kts | 270° |
| 2026-05-03 22:44 | 26.06697 | -80.15437 | 32 ft | 0 kts | 270° |
| 2026-05-03 22:44 | 26.06697 | -80.15439 | 32 ft | 2 kts | 270° |
| 2026-05-03 22:44 | 26.06697 | -80.15471 | 31 ft | 7 kts | 270° |
| 2026-05-03 22:45 | 26.06698 | -80.15505 | 30 ft | 0 kts | 270° |
| 2026-05-03 22:45 | 26.06698 | -80.15508 | 30 ft | 2 kts | 270° |
| 2026-05-03 22:45 | 26.06698 | -80.15541 | 29 ft | 6 kts | 270° |
| 2026-05-03 22:46 | 26.06698 | -80.15558 | 28 ft | 0 kts | 270° |
| 2026-05-03 22:46 | 26.06698 | -80.15565 | 28 ft | 3 kts | 270° |
| 2026-05-03 22:46 | 26.06698 | -80.15570 | 28 ft | 0 kts | 270° |
| 2026-05-03 22:47 | 26.06698 | -80.15572 | 28 ft | 0 kts | 270° |
| 2026-05-03 22:50 | 26.06698 | -80.15577 | 27 ft | 3 kts | 270° |
| 2026-05-03 22:50 | 26.06698 | -80.15617 | 30 ft | 7 kts | 270° |
| 2026-05-03 22:51 | 26.06698 | -80.15622 | 29 ft | 0 kts | 270° |
| 2026-05-03 22:51 | 26.06698 | -80.15642 | 30 ft | 5 kts | 270° |
| 2026-05-03 22:52 | 26.06698 | -80.15675 | 26 ft | 0 kts | 269° |
| 2026-05-03 22:53 | 26.06698 | -80.15676 | 24 ft | 0 kts | 269° |
| 2026-05-03 22:53 | 26.06698 | -80.15697 | 24 ft | 5 kts | 269° |
| 2026-05-03 22:54 | 26.06698 | -80.15719 | 23 ft | 0 kts | 270° |
| 2026-05-03 22:55 | 26.06698 | -80.15729 | 23 ft | 3 kts | 270° |
| 2026-05-03 22:55 | 26.06698 | -80.15763 | 22 ft | 2 kts | 270° |
| 2026-05-03 22:55 | 26.06698 | -80.15771 | 22 ft | 0 kts | 270° |
| 2026-05-03 22:57 | 26.06696 | -80.15790 | 24 ft | 5 kts | 256° |
| 2026-05-03 22:58 | 26.06677 | -80.15815 | 21 ft | 0 kts | 216° |
| 2026-05-03 22:58 | 26.06659 | -80.15822 | 19 ft | 5 kts | 192° |
| 2026-05-03 22:58 | 26.06611 | -80.15813 | 19 ft | 8 kts | 156° |
| 2026-05-03 22:58 | 26.06589 | -80.15781 | 20 ft | 8 kts | 102° |
| 2026-05-03 22:59 | 26.06589 | -80.15765 | 20 ft | 0 kts | 91° |
| 2026-05-03 22:59 | 26.06588 | -80.15646 | 26 ft | 46 kts | 89° |
| 2026-05-03 22:59 | 26.06585 | -80.15031 | 40 ft | 109 kts | 90° |
| 2026-05-03 23:00 | 26.06578 | -80.14005 | 92 ft | 150 kts | 86° |
| 2026-05-03 23:00 | 26.06562 | -80.12858 | 678 ft | 148 kts | 89° |
| 2026-05-03 23:00 | 26.06595 | -80.11671 | 1145 ft | 160 kts | 92° |
| 2026-05-03 23:00 | 26.06623 | -80.10369 | 1392 ft | 178 kts | 93° |
| 2026-05-03 23:01 | 26.06640 | -80.08915 | 1531 ft | 199 kts | 94° |
| 2026-05-03 23:01 | 26.06651 | -80.07291 | 1684 ft | 221 kts | 92° |
| 2026-05-03 23:01 | 26.06665 | -80.05492 | 1870 ft | 244 kts | 92° |
| 2026-05-03 23:01 | 26.06681 | -80.03508 | 2137 ft | 269 kts | 91° |
| 2026-05-03 23:02 | 26.06700 | -80.01362 | 2690 ft | 283 kts | 90° |
| 2026-05-03 23:02 | 26.06731 | -79.99152 | 3482 ft | 288 kts | 89° |
| 2026-05-03 23:02 | 26.06785 | -79.96908 | 3853 ft | 291 kts | 89° |
| 2026-05-03 23:02 | 26.06849 | -79.94664 | 3971 ft | 291 kts | 89° |
| 2026-05-03 23:03 | 26.06913 | -79.92437 | 3998 ft | 291 kts | 89° |
| 2026-05-03 23:03 | 26.06973 | -79.90186 | 4007 ft | 291 kts | 88° |
| 2026-05-03 23:03 | 26.07028 | -79.87944 | 4004 ft | 290 kts | 89° |
| 2026-05-03 23:03 | 26.07079 | -79.85705 | 4003 ft | 289 kts | 89° |
| 2026-05-03 23:04 | 26.07128 | -79.83463 | 4000 ft | 289 kts | 89° |
| 2026-05-03 23:04 | 26.07179 | -79.81219 | 4005 ft | 291 kts | 89° |
| 2026-05-03 23:04 | 26.07229 | -79.78971 | 4004 ft | 290 kts | 89° |
| 2026-05-03 23:04 | 26.07278 | -79.76730 | 4008 ft | 290 kts | 89° |
| 2026-05-03 23:05 | 26.07327 | -79.74488 | 4008 ft | 291 kts | 89° |
| 2026-05-03 23:05 | 26.07378 | -79.72237 | 4010 ft | 291 kts | 89° |
| 2026-05-03 23:05 | 26.07427 | -79.69987 | 4007 ft | 291 kts | 89° |
| 2026-05-03 23:05 | 26.07474 | -79.67733 | 4010 ft | 291 kts | 89° |
| 2026-05-03 23:06 | 26.07521 | -79.65478 | 4011 ft | 292 kts | 89° |
| 2026-05-03 23:06 | 26.07569 | -79.63219 | 4009 ft | 292 kts | 89° |
| 2026-05-03 23:06 | 26.07619 | -79.60966 | 4007 ft | 291 kts | 89° |
| 2026-05-03 23:06 | 26.07669 | -79.58714 | 4011 ft | 292 kts | 89° |
| 2026-05-03 23:07 | 26.07718 | -79.56460 | 4006 ft | 291 kts | 89° |
| 2026-05-03 23:07 | 26.07764 | -79.54203 | 4008 ft | 291 kts | 89° |
| 2026-05-03 23:07 | 26.07809 | -79.51956 | 4009 ft | 291 kts | 90° |
| 2026-05-03 23:07 | 26.07853 | -79.49702 | 4009 ft | 292 kts | 89° |
| 2026-05-03 23:08 | 26.07895 | -79.47446 | 4009 ft | 291 kts | 90° |
| 2026-05-03 23:08 | 26.07577 | -79.45238 | 4248 ft | 292 kts | 114° |
| 2026-05-03 23:08 | 26.06533 | -79.43324 | 5150 ft | 290 kts | 135° |
| 2026-05-03 23:08 | 26.04937 | -79.41991 | 5998 ft | 287 kts | 159° |
| 2026-05-03 23:09 | 26.03048 | -79.41473 | 6808 ft | 282 kts | 183° |
| 2026-05-03 23:09 | 26.01146 | -79.41799 | 7643 ft | 276 kts | 204° |
| 2026-05-03 23:09 | 25.99515 | -79.42871 | 8502 ft | 271 kts | 224° |
| 2026-05-03 23:09 | 25.98266 | -79.44438 | 9330 ft | 271 kts | 232° |
| 2026-05-03 23:10 | 25.97066 | -79.46065 | 10123 ft | 274 kts | 231° |
| 2026-05-03 23:10 | 25.95811 | -79.47760 | 10409 ft | 295 kts | 231° |
| 2026-05-03 23:10 | 25.94454 | -79.49591 | 10565 ft | 318 kts | 231° |
| 2026-05-03 23:10 | 25.93007 | -79.51542 | 10818 ft | 334 kts | 231° |
| 2026-05-03 23:11 | 25.91511 | -79.53552 | 11359 ft | 340 kts | 231° |
| 2026-05-03 23:11 | 25.89995 | -79.55584 | 11978 ft | 343 kts | 231° |
| 2026-05-03 23:11 | 25.88468 | -79.57629 | 12605 ft | 346 kts | 231° |
| 2026-05-03 23:11 | 25.86923 | -79.59697 | 13239 ft | 349 kts | 231° |
| 2026-05-03 23:12 | 25.85369 | -79.61780 | 13857 ft | 352 kts | 231° |
| 2026-05-03 23:12 | 25.83803 | -79.63882 | 14406 ft | 354 kts | 231° |
| 2026-05-03 23:12 | 25.82230 | -79.65992 | 14983 ft | 356 kts | 231° |
| 2026-05-03 23:12 | 25.80644 | -79.68116 | 15531 ft | 359 kts | 231° |
| 2026-05-03 23:13 | 25.79047 | -79.70253 | 16086 ft | 361 kts | 231° |
| 2026-05-03 23:13 | 25.77438 | -79.72405 | 16647 ft | 363 kts | 231° |
| 2026-05-03 23:13 | 25.75821 | -79.74567 | 17231 ft | 365 kts | 231° |
| 2026-05-03 23:13 | 25.74197 | -79.76742 | 17776 ft | 367 kts | 231° |
| 2026-05-03 23:14 | 25.72562 | -79.78932 | 18337 ft | 369 kts | 231° |
| 2026-05-03 23:14 | 25.70916 | -79.81133 | 18817 ft | 372 kts | 231° |
| 2026-05-03 23:14 | 25.69281 | -79.83316 | 19305 ft | 374 kts | 231° |
| 2026-05-03 23:14 | 25.67614 | -79.85542 | 19793 ft | 376 kts | 231° |
| 2026-05-03 23:15 | 25.65939 | -79.87776 | 20272 ft | 378 kts | 231° |
| 2026-05-03 23:15 | 25.64251 | -79.90024 | 20741 ft | 380 kts | 231° |
| 2026-05-03 23:15 | 25.62556 | -79.92276 | 21223 ft | 382 kts | 231° |
| 2026-05-03 23:15 | 25.60849 | -79.94547 | 21671 ft | 384 kts | 232° |
| 2026-05-03 23:16 | 25.59137 | -79.96826 | 22105 ft | 386 kts | 232° |
| 2026-05-03 23:16 | 25.57413 | -79.99124 | 22533 ft | 388 kts | 232° |
| 2026-05-03 23:16 | 25.55683 | -80.01431 | 22959 ft | 391 kts | 232° |
| 2026-05-03 23:16 | 25.53942 | -80.03749 | 23374 ft | 393 kts | 232° |
| 2026-05-03 23:17 | 25.52191 | -80.06078 | 23747 ft | 395 kts | 232° |
| 2026-05-03 23:17 | 25.50426 | -80.08424 | 24074 ft | 397 kts | 232° |
| 2026-05-03 23:17 | 25.48658 | -80.10771 | 24414 ft | 398 kts | 232° |
| 2026-05-03 23:17 | 25.46881 | -80.13128 | 24760 ft | 399 kts | 232° |
| 2026-05-03 23:18 | 25.45097 | -80.15492 | 25099 ft | 401 kts | 232° |
| 2026-05-03 23:18 | 25.43307 | -80.17867 | 25436 ft | 402 kts | 232° |
| 2026-05-03 23:18 | 25.41511 | -80.20246 | 25778 ft | 404 kts | 232° |
| 2026-05-03 23:18 | 25.39703 | -80.22634 | 26122 ft | 405 kts | 232° |
| 2026-05-03 23:19 | 25.37888 | -80.25031 | 26468 ft | 407 kts | 232° |
| 2026-05-03 23:19 | 25.36068 | -80.27438 | 26807 ft | 409 kts | 232° |
| 2026-05-03 23:19 | 25.34238 | -80.29856 | 27148 ft | 410 kts | 232° |
| 2026-05-03 23:19 | 25.32402 | -80.32280 | 27485 ft | 412 kts | 232° |
| 2026-05-03 23:20 | 25.30558 | -80.34716 | 27817 ft | 414 kts | 232° |
| 2026-05-03 23:20 | 25.28730 | -80.37130 | 28134 ft | 416 kts | 232° |
| 2026-05-03 23:20 | 25.26878 | -80.39574 | 28611 ft | 414 kts | 232° |
| 2026-05-03 23:20 | 25.24910 | -80.41894 | 29115 ft | 415 kts | 225° |
| 2026-05-03 23:21 | 25.22574 | -80.43794 | 29608 ft | 419 kts | 215° |
| 2026-05-03 23:21 | 25.19931 | -80.45183 | 30116 ft | 425 kts | 205° |
| 2026-05-03 23:21 | 25.17096 | -80.46141 | 30526 ft | 426 kts | 202° |
| 2026-05-03 23:21 | 25.14247 | -80.47065 | 30924 ft | 426 kts | 202° |
| 2026-05-03 23:22 | 25.08577 | -80.48918 | 31726 ft | 425 kts | 202° |
| 2026-05-03 23:22 | 25.05747 | -80.49844 | 32131 ft | 424 kts | 202° |
| 2026-05-03 23:22 | 25.02921 | -80.50767 | 32545 ft | 424 kts | 202° |
| 2026-05-03 23:23 | 25.00096 | -80.51689 | 32956 ft | 423 kts | 202° |
| 2026-05-03 23:23 | 24.97276 | -80.52612 | 33361 ft | 423 kts | 203° |
| 2026-05-03 23:23 | 24.94457 | -80.53536 | 33775 ft | 422 kts | 203° |
| 2026-05-03 23:23 | 24.91643 | -80.54457 | 34164 ft | 422 kts | 203° |
| 2026-05-03 23:24 | 24.88831 | -80.55376 | 34511 ft | 421 kts | 203° |
| 2026-05-03 23:24 | 24.86079 | -80.56427 | 34850 ft | 414 kts | 211° |
| 2026-05-03 23:24 | 24.83593 | -80.57984 | 34982 ft | 408 kts | 220° |
| 2026-05-03 23:24 | 24.81366 | -80.59924 | 35013 ft | 409 kts | 227° |
| 2026-05-03 23:25 | 24.77827 | -80.64747 | 35013 ft | 405 kts | 240° |
| 2026-05-03 23:25 | 24.74805 | -80.69939 | 35009 ft | 405 kts | 240° |
| 2026-05-03 23:26 | 24.71781 | -80.75182 | 35012 ft | 405 kts | 240° |
| 2026-05-03 23:26 | 24.68747 | -80.80414 | 35009 ft | 406 kts | 240° |
| 2026-05-03 23:27 | 24.65709 | -80.85646 | 35006 ft | 406 kts | 240° |
| 2026-05-03 23:27 | 24.62659 | -80.90879 | 35008 ft | 407 kts | 240° |
| 2026-05-03 23:28 | 24.59567 | -80.96086 | 35004 ft | 409 kts | 235° |
| 2026-05-03 23:28 | 24.57592 | -80.98357 | 35004 ft | 415 kts | 223° |
| 2026-05-03 23:28 | 24.55161 | -81.00104 | 35002 ft | 423 kts | 211° |
| 2026-05-03 23:29 | 24.52371 | -81.01227 | 34998 ft | 433 kts | 199° |
| 2026-05-03 23:29 | 24.49350 | -81.01627 | 34996 ft | 444 kts | 187° |
| 2026-05-03 23:29 | 24.43142 | -81.01574 | 34992 ft | 447 kts | 186° |
| 2026-05-03 23:30 | 24.36918 | -81.01503 | 34994 ft | 448 kts | 186° |
| 2026-05-03 23:30 | 24.30723 | -81.01446 | 34994 ft | 448 kts | 186° |
| 2026-05-03 23:31 | 24.24484 | -81.01397 | 34996 ft | 449 kts | 186° |
| 2026-05-03 23:31 | 24.18235 | -81.01344 | 35002 ft | 450 kts | 186° |
| 2026-05-03 23:32 | 24.11968 | -81.01293 | 35003 ft | 450 kts | 186° |
| 2026-05-03 23:32 | 24.05700 | -81.01246 | 35006 ft | 451 kts | 186° |
| 2026-05-03 23:33 | 23.99425 | -81.01188 | 35004 ft | 451 kts | 185° |
| 2026-05-03 23:33 | 23.93137 | -81.00989 | 35002 ft | 453 kts | 184° |
| 2026-05-03 23:34 | 23.86830 | -81.00668 | 35006 ft | 454 kts | 183° |
| 2026-05-03 23:34 | 23.80514 | -81.00355 | 35005 ft | 454 kts | 184° |
| 2026-05-03 23:35 | 23.74194 | -81.00084 | 35000 ft | 454 kts | 184° |
| 2026-05-03 23:35 | 23.67873 | -80.99832 | 35002 ft | 455 kts | 184° |
| 2026-05-03 23:36 | 23.61545 | -80.99572 | 35002 ft | 455 kts | 184° |
| 2026-05-03 23:36 | 23.55202 | -80.99305 | 35000 ft | 456 kts | 184° |
| 2026-05-03 23:37 | 23.48861 | -80.99038 | 35002 ft | 456 kts | 184° |
| 2026-05-03 23:37 | 23.42509 | -80.98772 | 35004 ft | 457 kts | 184° |
| 2026-05-03 23:38 | 23.36150 | -80.98497 | 35003 ft | 457 kts | 184° |
| 2026-05-03 23:38 | 23.29831 | -80.98233 | 35001 ft | 458 kts | 184° |
| 2026-05-03 23:39 | 23.23460 | -80.97970 | 35008 ft | 458 kts | 184° |
| 2026-05-03 23:39 | 23.17080 | -80.97702 | 35006 ft | 459 kts | 184° |
| 2026-05-03 23:40 | 23.10708 | -80.97430 | 35329 ft | 458 kts | 184° |
| 2026-05-03 23:40 | 23.07528 | -80.97295 | 35562 ft | 457 kts | 184° |
| 2026-05-03 23:40 | 23.04419 | -80.97587 | 35799 ft | 441 kts | 202° |
| 2026-05-03 23:41 | 23.01687 | -80.98942 | 35964 ft | 428 kts | 218° |
| 2026-05-03 23:41 | 22.99337 | -81.00882 | 36012 ft | 423 kts | 225° |
| 2026-05-03 23:41 | 22.95137 | -81.05302 | 36006 ft | 420 kts | 230° |
| 2026-05-03 23:42 | 22.91066 | -81.09849 | 36004 ft | 420 kts | 230° |
| 2026-05-03 23:42 | 22.87046 | -81.14445 | 36003 ft | 420 kts | 231° |
| 2026-05-03 23:43 | 22.83069 | -81.19074 | 36011 ft | 420 kts | 231° |
| 2026-05-03 23:43 | 22.79093 | -81.23713 | 36019 ft | 420 kts | 231° |
| 2026-05-03 23:44 | 22.75102 | -81.28347 | 36019 ft | 421 kts | 231° |
| 2026-05-03 23:44 | 22.71123 | -81.32948 | 36021 ft | 421 kts | 231° |
| 2026-05-03 23:45 | 22.67115 | -81.37574 | 36011 ft | 421 kts | 231° |
| 2026-05-03 23:45 | 22.63113 | -81.42201 | 36022 ft | 421 kts | 231° |
| 2026-05-03 23:46 | 22.59765 | -81.46088 | 36012 ft | 421 kts | 231° |
| 2026-05-03 23:46 | 22.55803 | -81.50700 | 36018 ft | 421 kts | 231° |
| 2026-05-03 23:47 | 22.51808 | -81.55345 | 36024 ft | 421 kts | 231° |
| 2026-05-03 23:47 | 22.47812 | -81.59979 | 36024 ft | 421 kts | 231° |
| 2026-05-03 23:48 | 22.43821 | -81.64602 | 36024 ft | 420 kts | 231° |
| 2026-05-03 23:48 | 22.39833 | -81.69221 | 36020 ft | 420 kts | 231° |
| 2026-05-03 23:49 | 22.35867 | -81.73809 | 36025 ft | 420 kts | 231° |
| 2026-05-03 23:49 | 22.31889 | -81.78424 | 36024 ft | 419 kts | 231° |
| 2026-05-03 23:50 | 22.27920 | -81.83037 | 36027 ft | 419 kts | 231° |
| 2026-05-03 23:50 | 22.23953 | -81.87643 | 36025 ft | 419 kts | 231° |
| 2026-05-03 23:51 | 22.19976 | -81.92243 | 36028 ft | 419 kts | 231° |
| 2026-05-03 23:51 | 22.16004 | -81.96846 | 36024 ft | 419 kts | 231° |
| 2026-05-03 23:52 | 22.12026 | -82.01445 | 36025 ft | 419 kts | 231° |
| 2026-05-03 23:52 | 22.08038 | -82.06043 | 36027 ft | 420 kts | 231° |
| 2026-05-03 23:53 | 22.04075 | -82.10616 | 36025 ft | 420 kts | 231° |
| 2026-05-03 23:53 | 22.00077 | -82.15221 | 36026 ft | 421 kts | 231° |
| 2026-05-03 23:54 | 21.96076 | -82.19829 | 36025 ft | 421 kts | 231° |
| 2026-05-03 23:54 | 21.92072 | -82.24442 | 36028 ft | 422 kts | 231° |
| 2026-05-03 23:55 | 21.88061 | -82.29058 | 36031 ft | 422 kts | 231° |
| 2026-05-03 23:55 | 21.84041 | -82.33672 | 36032 ft | 423 kts | 231° |
| 2026-05-03 23:56 | 21.80014 | -82.38286 | 36034 ft | 423 kts | 231° |
| 2026-05-03 23:56 | 21.75983 | -82.42904 | 36041 ft | 423 kts | 231° |
| 2026-05-03 23:57 | 21.71957 | -82.47525 | 36041 ft | 423 kts | 231° |
| 2026-05-03 23:57 | 21.67928 | -82.52143 | 36040 ft | 423 kts | 231° |
| 2026-05-03 23:58 | 21.63960 | -82.56766 | 36038 ft | 423 kts | 231° |
| 2026-05-03 23:58 | 21.60000 | -82.61443 | 36037 ft | 423 kts | 231° |
| 2026-05-03 23:59 | 21.56039 | -82.66121 | 36034 ft | 423 kts | 231° |
| 2026-05-03 23:59 | 21.52066 | -82.70793 | 36036 ft | 423 kts | 231° |
| 2026-05-04 00:00 | 21.48085 | -82.75449 | 36031 ft | 423 kts | 231° |
| 2026-05-04 00:00 | 21.44096 | -82.80108 | 36028 ft | 423 kts | 231° |
| 2026-05-04 00:01 | 21.40142 | -82.84733 | 36027 ft | 423 kts | 231° |
| 2026-05-04 00:01 | 21.36164 | -82.89385 | 36024 ft | 423 kts | 231° |